Corpus Christi NAS, Texas
Current Conditions -  °F | °C
As of 11:56 AM on Sunday 21 Dec 2014 (Local Time) from KNGP Reporting Station
Overcast Overcast  
Wind Chill: 58°   Ceiling: 1000
Heat Index: 58°   Visibility: 10mi
Dew Point: 54°   Wind: 13mph
Humidity: 87%   Direction: 50°NE
Pressure: 30.06"   Gusts: NA
Location:  27.7°N, 97.28°W
Report Text: KNGP 211756Z AUTO 05011KT 10SM OVC010 14/12 A3006 RMK AO2 SLP177 T01440122 10150 20133 58016
Loading
Personal Weather Stations






























Interactive Weather Map New forecast layout! Learn more

10-Day Weather Forecast

Advertisements
Track Severe Weather on mobile